Time;durP1;ratioP1;P1;durP2;ratioP2;P2;SDS_P1;SDS_P2;PMS_P1;PMS_P2;Temp;Humidity;BMP_temperature;BMP_pressure;BME280_temperature;BME280_humidity;BME280_pressure;Samples;Min_cycle;Max_cycle;Signal;HPM_P1;HPM_P2
2022/07/19 00:00:11;;;;;;;1.80;1.60;;;28.40;41.70;;;;;;5023914;28;20514;-71
2022/07/19 00:02:40;;;;;;;1.70;1.60;;;28.40;41.70;;;;;;5035337;28;20436;-71
2022/07/19 00:05:10;;;;;;;1.47;1.17;;;28.40;41.70;;;;;;5031336;28;20468;-71
2022/07/19 00:07:39;;;;;;;3.07;1.37;;;28.40;41.80;;;;;;5033642;28;20493;-71
2022/07/19 00:10:10;;;;;;;1.97;1.63;;;28.40;41.70;;;;;;5039289;28;20462;-71
2022/07/19 00:12:42;;;;;;;1.80;1.53;;;28.40;41.70;;;;;;5030465;28;20440;-72
2022/07/19 00:15:12;;;;;;;2.10;1.57;;;28.40;41.70;;;;;;5033625;28;20459;-71
2022/07/19 00:17:42;;;;;;;1.83;1.40;;;28.40;41.70;;;;;;5033849;28;20931;-71
2022/07/19 00:20:11;;;;;;;4.93;1.93;;;28.40;41.70;;;;;;5029402;28;20456;-71
2022/07/19 00:22:39;;;;;;;1.67;1.57;;;28.40;41.70;;;;;;5032892;28;20841;-71
2022/07/19 00:25:08;;;;;;;1.80;1.70;;;28.40;41.70;;;;;;5033411;28;20468;-71
2022/07/19 00:27:37;;;;;;;1.63;1.53;;;28.40;41.70;;;;;;5032692;28;20443;-71
2022/07/19 00:30:07;;;;;;;2.27;1.50;;;28.40;41.70;;;;;;5027179;28;20502;-71
2022/07/19 00:32:35;;;;;;;1.90;1.70;;;28.40;41.70;;;;;;5033302;28;20948;-72
2022/07/19 00:35:04;;;;;;;2.00;1.40;;;28.40;41.70;;;;;;5030428;28;20436;-72
2022/07/19 00:37:32;;;;;;;1.40;1.30;;;28.40;41.70;;;;;;5041506;28;20431;-72
2022/07/19 00:40:01;;;;;;;1.67;1.20;;;28.40;41.70;;;;;;5041514;28;20525;-72
2022/07/19 00:42:29;;;;;;;2.10;1.57;;;28.40;41.70;;;;;;5027617;28;21004;-71
2022/07/19 00:44:57;;;;;;;1.07;0.97;;;28.40;41.70;;;;;;5031938;28;20455;-71
2022/07/19 00:47:26;;;;;;;2.03;1.30;;;28.40;41.70;;;;;;5032275;28;20526;-71
2022/07/19 00:49:54;;;;;;;1.50;1.30;;;28.40;41.70;;;;;;5029716;28;20467;-71
2022/07/19 00:52:25;;;;;;;3.97;1.50;;;28.40;41.70;;;;;;5032248;28;20550;-72
2022/07/19 00:54:54;;;;;;;1.70;1.40;;;28.40;41.70;;;;;;5024232;28;20495;-72
2022/07/19 00:57:24;;;;;;;1.33;1.23;;;28.40;41.80;;;;;;5027036;28;20484;-72
2022/07/19 00:59:54;;;;;;;1.37;1.27;;;28.40;41.70;;;;;;5031211;28;20460;-71
2022/07/19 01:02:24;;;;;;;1.83;1.60;;;28.30;41.60;;;;;;5032563;28;20471;-72
2022/07/19 01:04:53;;;;;;;1.77;1.60;;;28.40;41.80;;;;;;5021775;28;21035;-71
2022/07/19 01:07:24;;;;;;;1.87;1.50;;;28.40;41.70;;;;;;5032375;28;20486;-72
2022/07/19 01:09:52;;;;;;;1.70;1.40;;;28.40;41.70;;;;;;5034502;28;20470;-71
2022/07/19 01:12:22;;;;;;;2.30;1.47;;;28.40;41.70;;;;;;5035792;28;20464;-71
2022/07/19 01:14:51;;;;;;;2.17;1.53;;;28.40;41.70;;;;;;5026255;28;20962;-71
2022/07/19 01:17:19;;;;;;;1.73;1.40;;;28.40;41.70;;;;;;5038429;28;20451;-71
2022/07/19 01:19:47;;;;;;;1.93;1.17;;;28.30;41.70;;;;;;5031839;28;20459;-71
2022/07/19 01:22:16;;;;;;;1.27;1.17;;;28.30;41.70;;;;;;5032249;28;20459;-71
2022/07/19 01:24:44;;;;;;;1.30;1.20;;;28.30;41.60;;;;;;5032047;28;20495;-72
2022/07/19 01:27:12;;;;;;;1.50;1.40;;;28.40;41.70;;;;;;5040229;28;20535;-71
2022/07/19 01:29:40;;;;;;;2.90;1.20;;;28.40;41.70;;;;;;5032093;28;20468;-71
2022/07/19 01:32:08;;;;;;;1.83;1.30;;;28.40;41.70;;;;;;5036249;28;21044;-71
2022/07/19 01:34:36;;;;;;;3.13;1.57;;;28.30;41.70;;;;;;5028924;28;20491;-71
2022/07/19 01:37:05;;;;;;;1.67;1.20;;;28.30;41.70;;;;;;5031789;28;20529;-72
2022/07/19 01:39:34;;;;;;;1.83;1.30;;;28.30;41.70;;;;;;5034831;28;20471;-71
2022/07/19 01:42:02;;;;;;;2.83;1.80;;;28.40;41.70;;;;;;5027902;28;21051;-71
2022/07/19 01:44:30;;;;;;;5.20;1.93;;;28.30;41.60;;;;;;5051314;22;20490;-47
2022/07/19 01:46:58;;;;;;;1.50;1.40;;;28.40;41.70;;;;;;5083218;28;20492;-47
2022/07/19 01:49:26;;;;;;;4.70;1.40;;;28.40;41.70;;;;;;5057521;28;20612;-48
2022/07/19 01:51:54;;;;;;;1.57;1.30;;;28.40;41.70;;;;;;5090144;28;20522;-48
2022/07/19 01:54:22;;;;;;;1.70;1.40;;;28.30;41.60;;;;;;5086561;28;20781;-48
2022/07/19 01:56:52;;;;;;;2.77;1.63;;;28.30;41.70;;;;;;5088975;28;20481;-48
2022/07/19 01:59:20;;;;;;;2.47;1.70;;;28.30;41.60;;;;;;5084231;28;20965;-48
2022/07/19 02:01:48;;;;;;;2.10;1.30;;;28.30;41.70;;;;;;5083106;28;20477;-48
2022/07/19 02:04:16;;;;;;;1.80;1.50;;;28.30;41.70;;;;;;5086972;28;20795;-47
2022/07/19 02:06:44;;;;;;;2.13;1.40;;;28.30;41.60;;;;;;5088319;28;20465;-47
2022/07/19 02:09:13;;;;;;;1.70;1.60;;;28.30;41.60;;;;;;5082712;28;20435;-47
2022/07/19 02:11:41;;;;;;;2.47;1.63;;;28.30;41.70;;;;;;5079673;28;20536;-48
2022/07/19 02:14:14;;;;;;;1.50;1.40;;;28.30;41.60;;;;;;5076951;28;20525;-48
2022/07/19 02:16:42;;;;;;;1.43;1.33;;;28.30;41.70;;;;;;5072547;28;20455;-48
2022/07/19 02:19:11;;;;;;;1.50;1.40;;;28.30;41.60;;;;;;5081959;28;20997;-48
2022/07/19 02:21:39;;;;;;;1.30;1.20;;;28.30;41.60;;;;;;5087950;28;20918;-48
2022/07/19 02:24:09;;;;;;;2.40;1.47;;;28.30;41.70;;;;;;5082910;28;20941;-48
2022/07/19 02:26:37;;;;;;;2.40;1.83;;;28.30;41.60;;;;;;5078909;28;20957;-48
2022/07/19 02:29:06;;;;;;;1.63;1.53;;;28.30;41.70;;;;;;5087881;28;20437;-48
2022/07/19 02:31:38;;;;;;;1.90;1.43;;;28.30;41.70;;;;;;5079539;28;20842;-48
2022/07/19 02:34:06;;;;;;;1.63;1.53;;;28.20;41.40;;;;;;5072344;28;20442;-48
2022/07/19 02:36:34;;;;;;;2.10;1.47;;;28.30;41.30;;;;;;5082103;28;20870;-48
2022/07/19 02:39:02;;;;;;;2.03;1.67;;;28.20;41.30;;;;;;5079305;28;20441;-48
2022/07/19 02:41:31;;;;;;;1.83;1.53;;;28.20;41.60;;;;;;5087984;28;20980;-48
2022/07/19 02:44:00;;;;;;;2.33;2.07;;;28.30;41.60;;;;;;5076662;28;20473;-48
2022/07/19 02:46:28;;;;;;;1.83;1.27;;;28.30;41.50;;;;;;5086932;28;20473;-48
2022/07/19 02:48:58;;;;;;;3.10;1.53;;;28.20;40.90;;;;;;5060349;28;20425;-48
2022/07/19 02:51:26;;;;;;;1.90;1.80;;;28.20;41.10;;;;;;5088433;28;20495;-48
2022/07/19 02:53:55;;;;;;;1.60;1.50;;;28.20;41.30;;;;;;5085961;28;20426;-48
2022/07/19 02:56:23;;;;;;;1.30;1.20;;;28.20;41.60;;;;;;5091833;28;20907;-48
2022/07/19 02:58:52;;;;;;;1.50;1.40;;;28.20;41.40;;;;;;5084577;28;20437;-47
2022/07/19 03:01:20;;;;;;;1.83;1.63;;;28.20;41.50;;;;;;5092229;28;20890;-48
2022/07/19 03:03:49;;;;;;;2.30;1.37;;;28.20;41.60;;;;;;5085036;28;20916;-48
2022/07/19 03:06:19;;;;;;;1.47;1.33;;;28.20;41.60;;;;;;5081136;28;20890;-48
2022/07/19 03:08:48;;;;;;;2.13;2.03;;;28.20;41.60;;;;;;5093072;28;20440;-48
2022/07/19 03:11:18;;;;;;;1.57;1.47;;;28.20;41.60;;;;;;5085825;28;20544;-48
2022/07/19 03:13:46;;;;;;;1.27;1.17;;;28.20;41.60;;;;;;5087767;28;21015;-47
2022/07/19 03:16:15;;;;;;;2.23;1.70;;;28.20;41.60;;;;;;5087733;28;20909;-48
2022/07/19 03:18:43;;;;;;;1.50;1.30;;;28.20;41.60;;;;;;5084845;28;20453;-48
2022/07/19 03:21:11;;;;;;;3.27;1.30;;;28.20;41.60;;;;;;5090686;28;20495;-48
2022/07/19 03:23:41;;;;;;;1.70;1.60;;;28.20;41.60;;;;;;5084285;28;20460;-48
2022/07/19 03:26:09;;;;;;;1.57;1.47;;;28.20;41.60;;;;;;5092191;28;20497;-47
2022/07/19 03:28:37;;;;;;;2.00;1.60;;;28.20;41.60;;;;;;5081951;28;20952;-47
2022/07/19 03:31:05;;;;;;;1.87;1.60;;;28.20;41.60;;;;;;5085456;28;20493;-48
2022/07/19 03:33:33;;;;;;;1.43;1.20;;;28.20;41.60;;;;;;5089056;28;20478;-47
2022/07/19 03:36:02;;;;;;;1.30;1.17;;;28.20;41.60;;;;;;5059309;28;20468;-47
2022/07/19 03:38:30;;;;;;;2.70;1.33;;;28.20;41.60;;;;;;5089945;28;20509;-48
2022/07/19 03:41:00;;;;;;;1.70;1.60;;;28.20;41.60;;;;;;5088074;28;20551;-48
2022/07/19 03:43:28;;;;;;;1.80;1.50;;;28.20;41.60;;;;;;5081363;28;20525;-47
2022/07/19 03:45:56;;;;;;;2.10;1.80;;;28.20;41.60;;;;;;5084889;28;20481;-47
2022/07/19 03:48:24;;;;;;;1.40;1.20;;;28.20;41.60;;;;;;5092689;28;20433;-47
2022/07/19 03:50:52;;;;;;;2.30;1.40;;;28.20;41.60;;;;;;5076886;28;20861;-47
2022/07/19 03:53:20;;;;;;;2.00;1.67;;;28.20;41.60;;;;;;5079928;28;20472;-46
2022/07/19 03:55:49;;;;;;;1.50;1.40;;;28.10;41.50;;;;;;5091376;28;20477;-48
2022/07/19 03:58:18;;;;;;;1.47;1.37;;;28.20;41.60;;;;;;5083249;28;20870;-47
2022/07/19 04:00:46;;;;;;;1.30;1.20;;;28.10;41.50;;;;;;5088671;28;20500;-48
2022/07/19 04:03:14;;;;;;;1.67;1.57;;;28.10;41.60;;;;;;5084421;28;20474;-48
2022/07/19 04:05:43;;;;;;;2.17;1.97;;;28.10;41.50;;;;;;5075875;28;21000;-47
2022/07/19 04:08:11;;;;;;;2.10;1.53;;;28.10;41.50;;;;;;5083953;28;20524;-48
2022/07/19 04:10:40;;;;;;;1.30;1.20;;;28.10;42.70;;;;;;5089394;28;20860;-47
2022/07/19 04:13:08;;;;;;;1.53;1.43;;;28.10;41.50;;;;;;5075329;28;20441;-48
2022/07/19 04:15:38;;;;;;;1.80;1.70;;;28.10;41.50;;;;;;5089794;28;20829;-48
2022/07/19 04:18:13;;;;;;;1.40;1.30;;;28.10;41.50;;;;;;5085290;28;20469;-48
2022/07/19 04:20:41;;;;;;;1.60;1.50;;;28.10;41.50;;;;;;5061191;28;20986;-48
2022/07/19 04:23:11;;;;;;;1.57;1.33;;;28.10;41.50;;;;;;5077342;28;21028;-48
2022/07/19 04:25:39;;;;;;;1.63;1.53;;;28.10;41.50;;;;;;5089570;28;20490;-48
2022/07/19 04:28:08;;;;;;;2.40;1.47;;;28.10;41.60;;;;;;5077630;28;20500;-48
2022/07/19 04:30:37;;;;;;;2.23;1.40;;;28.10;41.50;;;;;;5066114;28;20481;-48
2022/07/19 04:33:06;;;;;;;1.93;1.47;;;28.00;41.50;;;;;;5091583;28;20670;-48
2022/07/19 04:35:34;;;;;;;2.80;1.70;;;28.10;41.50;;;;;;5086630;28;20851;-48
2022/07/19 04:38:02;;;;;;;1.53;1.43;;;28.00;41.50;;;;;;5068592;28;20941;-48
2022/07/19 04:40:30;;;;;;;1.53;1.43;;;28.00;41.40;;;;;;5060303;28;20461;-47
2022/07/19 04:42:58;;;;;;;3.70;1.60;;;28.00;41.40;;;;;;5082771;28;21004;-48
2022/07/19 04:45:27;;;;;;;1.60;1.50;;;28.00;41.20;;;;;;5084805;28;20484;-48
2022/07/19 04:47:57;;;;;;;2.33;2.00;;;28.00;41.40;;;;;;5091816;28;20836;-47
2022/07/19 04:50:26;;;;;;;4.70;3.10;;;28.00;41.40;;;;;;5084875;28;20488;-48
2022/07/19 04:52:54;;;;;;;3.87;2.60;;;28.00;40.00;;;;;;5064594;28;20521;-48
2022/07/19 04:55:23;;;;;;;3.73;2.80;;;27.80;38.30;;;;;;5079144;28;20479;-48
2022/07/19 04:57:53;;;;;;;3.03;2.47;;;27.70;37.30;;;;;;5084985;28;20486;-48
2022/07/19 05:00:23;;;;;;;4.27;3.07;;;27.50;37.30;;;;;;5081086;28;20461;-48
2022/07/19 05:02:55;;;;;;;4.03;3.40;;;27.40;37.00;;;;;;5077397;28;20434;-48
2022/07/19 05:05:25;;;;;;;3.03;2.83;;;27.20;37.20;;;;;;5070986;28;20470;-48
2022/07/19 05:07:56;;;;;;;3.73;2.20;;;27.10;36.90;;;;;;5057619;28;20461;-48
2022/07/19 05:10:24;;;;;;;3.80;3.00;;;27.10;36.80;;;;;;5089376;28;22509;-48
2022/07/19 05:12:54;;;;;;;4.10;3.10;;;26.90;37.00;;;;;;5083189;28;20520;-48
2022/07/19 05:15:22;;;;;;;6.20;2.80;;;26.80;37.10;;;;;;5055291;28;20449;-48
2022/07/19 05:17:52;;;;;;;4.70;2.80;;;26.80;36.80;;;;;;5067557;28;20468;-48
2022/07/19 05:20:22;;;;;;;2.90;2.57;;;26.80;37.20;;;;;;5086125;28;20480;-49
2022/07/19 05:22:51;;;;;;;3.40;2.60;;;26.80;37.40;;;;;;5080102;28;20491;-48
2022/07/19 05:25:20;;;;;;;2.90;2.70;;;26.70;37.00;;;;;;5071990;28;20451;-47
2022/07/19 05:27:49;;;;;;;8.23;3.37;;;26.80;37.20;;;;;;5077043;28;20482;-48
2022/07/19 05:30:20;;;;;;;5.60;2.60;;;26.80;37.00;;;;;;5086204;28;20830;-48
2022/07/19 05:32:52;;;;;;;7.93;3.30;;;26.80;37.10;;;;;;5090304;28;20469;-48
2022/07/19 05:35:20;;;;;;;5.00;3.17;;;26.90;37.20;;;;;;5076613;28;20458;-48
2022/07/19 05:37:49;;;;;;;2.47;2.27;;;26.90;37.20;;;;;;5069718;28;20548;-47
2022/07/19 05:40:19;;;;;;;4.07;2.50;;;26.80;37.10;;;;;;5089094;28;20441;-47
2022/07/19 05:42:48;;;;;;;6.50;3.23;;;26.80;37.20;;;;;;5073268;28;20502;-52
2022/07/19 05:45:19;;;;;;;4.20;2.70;;;26.80;37.20;;;;;;5088322;28;20463;-48
2022/07/19 05:47:47;;;;;;;6.00;3.10;;;26.80;37.80;;;;;;5087391;28;20489;-48
2022/07/19 05:50:16;;;;;;;5.33;2.53;;;26.70;37.60;;;;;;5067150;28;20482;-48
2022/07/19 05:52:44;;;;;;;2.97;2.70;;;26.50;38.00;;;;;;5088428;28;20434;-48
2022/07/19 05:55:13;;;;;;;3.57;2.70;;;26.50;38.30;;;;;;5081669;28;20515;-48
2022/07/19 05:57:43;;;;;;;3.90;2.47;;;26.50;38.40;;;;;;5089700;28;20481;-48
2022/07/19 06:00:14;;;;;;;5.23;2.40;;;26.60;38.50;;;;;;5076014;28;20491;-47
2022/07/19 06:02:42;;;;;;;5.20;3.17;;;26.70;38.60;;;;;;5081674;28;20512;-47
2022/07/19 06:05:10;;;;;;;3.13;2.43;;;26.80;38.50;;;;;;5074517;28;20492;-48
2022/07/19 06:07:39;;;;;;;5.80;2.93;;;26.90;38.50;;;;;;5061259;28;20465;-48
2022/07/19 06:10:10;;;;;;;3.50;2.87;;;26.90;38.30;;;;;;5081234;28;20434;-48
2022/07/19 06:12:39;;;;;;;3.20;2.53;;;26.90;38.40;;;;;;5072432;28;20988;-47
2022/07/19 06:15:10;;;;;;;2.90;2.70;;;27.00;38.40;;;;;;5062122;28;20437;-48
2022/07/19 06:17:38;;;;;;;2.27;2.07;;;27.10;38.40;;;;;;5088589;28;20463;-48
2022/07/19 06:20:07;;;;;;;5.73;3.50;;;27.10;38.30;;;;;;5075583;28;20754;-48
2022/07/19 06:22:35;;;;;;;3.90;2.40;;;27.10;39.60;;;;;;5086802;28;20445;-48
2022/07/19 06:25:06;;;;;;;2.77;2.43;;;27.10;38.30;;;;;;5089989;28;20913;-48
2022/07/19 06:27:34;;;;;;;3.50;2.53;;;27.20;38.50;;;;;;5087864;28;20986;-48
2022/07/19 06:30:03;;;;;;;2.90;2.43;;;27.20;38.30;;;;;;5078403;28;20449;-48
2022/07/19 06:32:33;;;;;;;2.83;2.50;;;27.20;38.30;;;;;;5080210;28;20526;-48
2022/07/19 06:35:01;;;;;;;4.27;2.67;;;27.20;38.50;;;;;;5073390;28;20484;-48
2022/07/19 06:37:29;;;;;;;2.47;2.27;;;27.20;38.50;;;;;;5079664;28;20485;-47
2022/07/19 06:39:57;;;;;;;3.03;2.83;;;27.30;38.60;;;;;;5082417;28;20429;-48
2022/07/19 06:42:26;;;;;;;3.33;2.50;;;27.30;38.50;;;;;;5073139;28;20935;-47
2022/07/19 06:44:54;;;;;;;3.77;2.40;;;27.30;38.30;;;;;;5085080;28;20450;-48
2022/07/19 06:47:22;;;;;;;2.90;2.40;;;27.30;38.40;;;;;;5052763;28;20482;-48
2022/07/19 06:49:52;;;;;;;6.33;2.87;;;27.30;38.20;;;;;;5075753;28;20989;-48
2022/07/19 06:52:36;;;;;;;2.63;2.27;;;27.40;38.30;;;;;;5055129;28;20877;-48
2022/07/19 06:55:04;;;;;;;2.93;2.50;;;27.40;38.20;;;;;;5083476;28;20865;-48
2022/07/19 06:57:32;;;;;;;3.90;2.97;;;27.30;38.30;;;;;;5070902;28;20512;-48
2022/07/19 07:00:01;;;;;;;3.23;2.60;;;27.40;38.30;;;;;;5085662;28;20444;-48
2022/07/19 07:02:30;;;;;;;3.80;2.40;;;27.40;38.40;;;;;;5051889;28;20465;-48
2022/07/19 07:05:00;;;;;;;3.30;2.37;;;27.40;38.50;;;;;;5079701;28;20445;-48
2022/07/19 07:07:28;;;;;;;2.60;2.33;;;27.40;38.50;;;;;;5089073;28;20453;-48
2022/07/19 07:09:57;;;;;;;4.17;2.53;;;27.40;38.50;;;;;;5088948;28;20552;-48
2022/07/19 07:12:25;;;;;;;3.93;2.33;;;27.40;38.50;;;;;;5077599;28;20518;-48
2022/07/19 07:14:53;;;;;;;3.27;3.07;;;27.40;38.60;;;;;;5074577;28;20789;-48
2022/07/19 07:17:22;;;;;;;3.23;2.70;;;27.40;38.60;;;;;;5080088;28;20664;-50
2022/07/19 07:19:51;;;;;;;2.60;2.23;;;27.40;38.60;;;;;;5061856;28;20518;-49
2022/07/19 07:22:21;;;;;;;2.77;2.33;;;27.40;38.70;;;;;;5087785;28;20523;-47
2022/07/19 07:24:49;;;;;;;2.53;2.30;;;27.50;38.60;;;;;;5087237;28;20939;-48
2022/07/19 07:27:20;;;;;;;2.97;2.60;;;27.40;38.70;;;;;;5081486;28;20471;-48
2022/07/19 07:29:51;;;;;;;2.50;2.30;;;27.50;38.90;;;;;;5082729;28;20500;-48
2022/07/19 07:32:19;;;;;;;3.17;2.87;;;27.40;38.90;;;;;;5084271;28;20552;-47
2022/07/19 07:34:48;;;;;;;2.10;1.90;;;27.50;39.10;;;;;;5079512;28;20554;-48
2022/07/19 07:37:16;;;;;;;4.07;2.57;;;27.50;39.10;;;;;;5054660;28;20462;-48
2022/07/19 07:39:45;;;;;;;2.50;2.30;;;27.50;39.10;;;;;;5081082;28;20483;-48
2022/07/19 07:42:14;;;;;;;3.43;2.30;;;27.50;39.10;;;;;;5082391;28;20473;-47
2022/07/19 07:44:44;;;;;;;2.37;2.17;;;27.50;39.10;;;;;;5088866;28;20480;-47
2022/07/19 07:47:13;;;;;;;2.77;2.57;;;27.50;39.20;;;;;;5090773;28;21085;-47
2022/07/19 07:49:42;;;;;;;2.17;1.97;;;27.50;39.20;;;;;;5079431;28;20469;-48
2022/07/19 07:52:10;;;;;;;2.03;1.93;;;27.50;39.30;;;;;;5087774;28;20493;-47
2022/07/19 07:54:39;;;;;;;2.40;2.20;;;27.50;39.30;;;;;;5089852;28;20444;-48
2022/07/19 07:57:29;;;;;;;3.30;2.40;;;27.50;39.30;;;;;;5081748;28;20495;-48
2022/07/19 07:59:58;;;;;;;2.30;2.10;;;27.50;39.20;;;;;;5076903;28;20533;-48
2022/07/19 08:02:27;;;;;;;2.23;2.03;;;27.60;39.30;;;;;;5079837;28;20482;-48
2022/07/19 08:04:56;;;;;;;2.63;2.43;;;27.50;39.40;;;;;;5084494;28;20438;-48
2022/07/19 08:07:24;;;;;;;2.30;2.10;;;27.50;39.40;;;;;;5080132;28;20454;-48
2022/07/19 08:09:52;;;;;;;5.90;2.60;;;27.50;39.50;;;;;;5079395;28;20472;-48
2022/07/19 08:12:22;;;;;;;2.50;2.30;;;27.60;39.50;;;;;;5076113;28;20496;-48
2022/07/19 08:14:52;;;;;;;3.97;2.23;;;27.50;39.50;;;;;;5076479;28;20933;-48
2022/07/19 08:17:21;;;;;;;2.50;2.10;;;27.60;39.60;;;;;;5080058;28;20473;-48
2022/07/19 08:19:50;;;;;;;2.53;2.33;;;27.60;39.60;;;;;;5077114;28;20932;-48
2022/07/19 08:22:19;;;;;;;2.17;1.97;;;27.50;39.60;;;;;;5081008;28;20462;-48
2022/07/19 08:24:47;;;;;;;2.67;2.47;;;27.50;39.70;;;;;;5070943;28;20845;-48
2022/07/19 08:27:16;;;;;;;1.93;1.80;;;27.50;39.60;;;;;;5085363;28;20526;-48
2022/07/19 08:29:45;;;;;;;2.70;2.50;;;27.60;39.70;;;;;;5065787;28;20607;-48
2022/07/19 08:32:15;;;;;;;2.33;2.13;;;27.50;39.70;;;;;;5081931;28;20491;-48
2022/07/19 08:34:44;;;;;;;2.27;2.07;;;27.60;39.80;;;;;;5085741;28;20442;-48
2022/07/19 08:37:13;;;;;;;2.20;2.03;;;27.60;39.70;;;;;;5083530;28;20491;-48
2022/07/19 08:39:41;;;;;;;2.40;2.20;;;27.60;39.80;;;;;;5080351;28;20445;-48
2022/07/19 08:42:10;;;;;;;2.90;2.03;;;27.60;39.90;;;;;;5076552;28;21038;-48
2022/07/19 08:44:39;;;;;;;2.30;2.10;;;27.60;39.80;;;;;;5089176;28;20437;-48
2022/07/19 08:47:08;;;;;;;2.40;2.20;;;27.60;39.80;;;;;;5090605;28;20465;-48
2022/07/19 08:49:40;;;;;;;2.83;2.37;;;27.60;39.90;;;;;;5085856;28;20462;-47
2022/07/19 08:52:09;;;;;;;3.30;1.97;;;27.60;39.90;;;;;;5066450;28;20530;-48
2022/07/19 08:54:38;;;;;;;2.40;2.13;;;27.60;39.90;;;;;;5088893;28;20463;-48
2022/07/19 08:59:53;;;;;;;2.13;1.93;;;27.60;40.00;;;;;;5079678;28;20913;-47
2022/07/19 09:02:23;;;;;;;2.17;1.97;;;27.60;40.00;;;;;;5075019;28;20458;-48
2022/07/19 09:05:05;;;;;;;3.00;2.10;;;27.60;40.10;;;;;;5075741;28;20449;-48
2022/07/19 09:07:33;;;;;;;2.00;1.90;;;27.60;40.00;;;;;;5073855;28;20468;-47
2022/07/19 09:10:19;;;;;;;2.40;2.20;;;27.60;40.00;;;;;;5091358;28;20548;-48
2022/07/19 09:13:15;;;;;;;2.23;2.03;;;27.60;39.90;;;;;;5071070;28;20852;-48
2022/07/19 09:15:49;;;;;;;2.23;2.13;;;27.60;40.00;;;;;;5021400;28;20468;-48
2022/07/19 09:18:23;;;;;;;2.17;2.00;;;27.60;40.00;;;;;;5052266;28;20783;-48
2022/07/19 09:20:55;;;;;;;2.57;2.27;;;27.60;40.00;;;;;;5120844;22;20490;-50
2022/07/19 09:23:25;;;;;;;2.60;2.40;;;27.60;40.00;;;;;;5039038;28;20949;-49
2022/07/19 09:25:55;;;;;;;2.30;2.10;;;27.60;39.90;;;;;;5042046;28;20485;-48
2022/07/19 09:28:26;;;;;;;2.20;2.10;;;27.60;39.90;;;;;;5032892;28;20451;-49
2022/07/19 09:30:57;;;;;;;2.23;2.13;;;27.60;39.90;;;;;;5025487;28;20468;-50
2022/07/19 09:33:28;;;;;;;2.27;2.17;;;27.60;40.00;;;;;;5030729;28;20931;-52
2022/07/19 09:36:00;;;;;;;1.87;1.77;;;27.60;40.00;;;;;;5030259;28;20464;-48
2022/07/19 09:38:29;;;;;;;2.77;2.30;;;27.60;40.00;;;;;;5032626;28;20466;-48
2022/07/19 09:41:10;;;;;;;2.47;2.27;;;27.60;40.00;;;;;;5029506;28;20470;-47
2022/07/19 09:43:53;;;;;;;2.40;2.20;;;27.60;40.00;;;;;;5027942;28;20447;-48
2022/07/19 09:46:34;;;;;;;2.93;2.33;;;27.60;40.10;;;;;;5026012;28;20839;-48
2022/07/19 09:49:05;;;;;;;2.20;2.10;;;27.60;40.20;;;;;;5005841;28;20455;-48
2022/07/19 09:51:37;;;;;;;3.07;2.80;;;27.60;40.10;;;;;;5022776;28;20471;-49
2022/07/19 09:54:08;;;;;;;2.50;2.20;;;27.60;40.10;;;;;;5037303;28;20436;-48
2022/07/19 09:56:38;;;;;;;2.63;2.17;;;27.60;40.00;;;;;;5029962;28;20867;-48
2022/07/19 09:59:07;;;;;;;1.77;1.67;;;27.60;40.00;;;;;;5027709;28;20490;-47
2022/07/19 10:01:37;;;;;;;1.93;1.83;;;27.60;40.00;;;;;;5030307;28;20990;-48
2022/07/19 10:04:09;;;;;;;2.10;2.00;;;27.60;40.10;;;;;;5042665;28;20527;-51
2022/07/19 10:06:42;;;;;;;2.07;1.97;;;27.60;40.10;;;;;;5041751;28;20829;-48
2022/07/19 10:09:13;;;;;;;2.00;1.90;;;27.60;40.00;;;;;;5008591;28;20446;-49
2022/07/19 10:11:43;;;;;;;2.30;2.07;;;27.60;39.70;;;;;;5049680;28;21055;-48
2022/07/19 10:14:12;;;;;;;2.40;2.20;;;27.60;39.70;;;;;;5033809;28;20458;-48
2022/07/19 10:16:51;;;;;;;2.20;2.00;;;27.60;39.60;;;;;;5028500;28;20460;-48
2022/07/19 10:19:29;;;;;;;2.50;2.33;;;27.70;39.80;;;;;;5019763;28;20931;-47
2022/07/19 10:21:59;;;;;;;2.60;2.00;;;27.70;39.90;;;;;;5026643;28;20467;-49
2022/07/19 10:24:43;;;;;;;2.17;1.80;;;27.70;39.90;;;;;;5040738;28;20432;-47
2022/07/19 10:27:13;;;;;;;2.70;1.83;;;27.70;39.90;;;;;;5037039;28;20475;-48
2022/07/19 10:29:41;;;;;;;3.53;2.30;;;27.70;39.80;;;;;;5035577;28;20456;-50
2022/07/19 10:32:11;;;;;;;2.63;2.43;;;27.70;39.80;;;;;;5037937;28;20455;-48
2022/07/19 10:34:40;;;;;;;2.27;2.10;;;27.70;39.80;;;;;;5023399;28;20444;-49
2022/07/19 10:37:10;;;;;;;2.37;1.83;;;27.70;39.90;;;;;;5037527;28;20488;-47
2022/07/19 10:39:39;;;;;;;2.23;2.07;;;27.70;39.80;;;;;;5021524;28;20443;-48
2022/07/19 10:42:17;;;;;;;1.90;1.80;;;27.70;39.90;;;;;;5029434;28;20466;-52
2022/07/19 10:45:14;;;;;;;3.20;2.23;;;27.70;39.90;;;;;;5021906;28;20564;-48
2022/07/19 10:48:17;;;;;;;7.00;2.13;;;27.70;40.00;;;;;;5029605;28;20544;-47
2022/07/19 10:51:00;;;;;;;2.10;2.00;;;27.70;39.90;;;;;;5035684;28;20977;-48
2022/07/19 10:54:05;;;;;;;2.20;2.00;;;27.70;39.80;;;;;;5023762;28;20512;-48
2022/07/19 10:56:39;;;;;;;2.40;2.20;;;27.70;39.90;;;;;;5045208;28;20521;-48
2022/07/19 10:59:32;;;;;;;2.50;2.30;;;27.80;40.00;;;;;;5023174;28;20451;-51
2022/07/19 11:02:02;;;;;;;1.83;1.73;;;27.70;39.70;;;;;;5033813;28;20558;-48
2022/07/19 11:04:51;;;;;;;2.43;2.23;;;27.70;39.70;;;;;;5035173;28;20955;-47
2022/07/19 11:07:24;;;;;;;2.80;2.00;;;27.80;39.90;;;;;;5018840;28;20463;-48
2022/07/19 11:09:56;;;;;;;2.80;2.27;;;27.80;39.90;;;;;;5045436;28;20435;-48
2022/07/19 11:12:32;;;;;;;2.60;2.40;;;27.70;39.70;;;;;;5048494;28;20909;-49
2022/07/19 11:15:03;;;;;;;2.90;2.20;;;27.70;39.70;;;;;;5027797;28;20440;-48
2022/07/19 11:17:52;;;;;;;2.00;1.90;;;27.80;41.10;;;;;;5020956;28;20929;-47
2022/07/19 11:20:23;;;;;;;2.07;1.97;;;27.80;39.90;;;;;;5032420;28;20471;-47
2022/07/19 11:22:52;;;;;;;1.80;1.70;;;27.80;40.00;;;;;;5031434;28;20440;-49
2022/07/19 11:25:27;;;;;;;2.23;1.97;;;27.80;40.10;;;;;;5028565;28;20837;-48
2022/07/19 11:27:56;;;;;;;2.40;2.20;;;27.80;40.10;;;;;;5035535;28;20524;-48
2022/07/19 11:30:25;;;;;;;2.30;2.10;;;27.80;39.60;;;;;;5029537;28;20467;-47
2022/07/19 11:32:56;;;;;;;2.53;1.83;;;27.80;39.70;;;;;;5039204;28;20444;-50
2022/07/19 11:35:24;;;;;;;2.30;2.10;;;27.80;39.90;;;;;;5026573;28;20436;-49
2022/07/19 11:37:54;;;;;;;2.33;2.13;;;27.80;39.90;;;;;;5032534;28;20460;-48
2022/07/19 11:40:25;;;;;;;2.33;1.90;;;27.80;39.80;;;;;;5040544;28;20460;-48
2022/07/19 11:42:53;;;;;;;2.97;2.20;;;27.90;39.70;;;;;;5029565;28;20444;-48
2022/07/19 11:45:46;;;;;;;2.27;2.13;;;27.90;39.70;;;;;;5031976;28;20535;-48
2022/07/19 11:48:25;;;;;;;2.30;2.10;;;27.90;39.90;;;;;;5032335;28;20436;-49
2022/07/19 11:51:02;;;;;;;2.30;2.10;;;27.90;39.70;;;;;;5027042;28;20467;-49
2022/07/19 11:53:31;;;;;;;2.40;2.20;;;27.90;39.80;;;;;;5039680;28;20439;-49
2022/07/19 11:56:02;;;;;;;2.30;2.10;;;27.90;39.90;;;;;;5033769;28;20990;-47
2022/07/19 11:58:31;;;;;;;2.13;2.03;;;27.90;39.90;;;;;;5038609;28;20440;-47
2022/07/19 12:01:05;;;;;;;2.43;1.83;;;27.90;39.60;;;;;;5039498;28;20456;-49
2022/07/19 12:03:35;;;;;;;2.00;1.80;;;27.90;39.70;;;;;;5031891;28;20527;-47
2022/07/19 12:06:06;;;;;;;1.90;1.80;;;27.90;39.90;;;;;;5027896;28;20475;-47
2022/07/19 12:08:42;;;;;;;2.67;1.83;;;27.90;39.80;;;;;;5034881;28;20440;-49
2022/07/19 12:11:21;;;;;;;2.17;2.07;;;27.90;39.50;;;;;;5031736;28;20472;-48
2022/07/19 12:13:51;;;;;;;2.03;1.93;;;28.00;39.80;;;;;;5042654;28;20534;-48
2022/07/19 12:16:20;;;;;;;2.17;2.00;;;28.00;39.90;;;;;;5029783;28;20472;-48
2022/07/19 12:18:52;;;;;;;2.00;1.80;;;28.00;40.00;;;;;;5045781;28;20951;-48
2022/07/19 12:21:23;;;;;;;2.13;2.00;;;28.00;39.90;;;;;;5035317;28;20459;-49
2022/07/19 12:24:25;;;;;;;2.10;2.00;;;28.00;39.90;;;;;;5026333;28;20481;-48
2022/07/19 12:27:03;;;;;;;1.90;1.80;;;28.00;41.10;;;;;;4960754;28;20470;-48
2022/07/19 12:29:36;;;;;;;2.60;2.40;;;28.00;39.80;;;;;;4976205;28;20450;-48
2022/07/19 12:32:07;;;;;;;1.87;1.77;;;28.00;39.80;;;;;;5017094;28;20471;-48
2022/07/19 12:34:47;;;;;;;2.10;2.00;;;28.00;39.80;;;;;;5029126;28;20445;-49
2022/07/19 12:37:23;;;;;;;4.53;2.60;;;28.00;39.60;;;;;;5019477;28;20479;-48
2022/07/19 12:40:06;;;;;;;3.67;2.20;;;28.00;39.70;;;;;;5023195;28;20488;-48
2022/07/19 12:42:42;;;;;;;1.93;1.83;;;28.10;39.60;;;;;;5008951;28;20543;-51
2022/07/19 12:45:13;;;;;;;2.60;2.40;;;28.10;39.70;;;;;;5032652;28;20447;-46
2022/07/19 12:47:41;;;;;;;1.60;1.50;;;28.00;39.80;;;;;;5032933;28;20475;-48
2022/07/19 12:50:19;;;;;;;2.33;1.80;;;28.10;39.70;;;;;;5037458;28;20550;-46
2022/07/19 12:52:47;;;;;;;1.93;1.83;;;28.10;39.80;;;;;;5031389;28;20513;-50
2022/07/19 12:55:17;;;;;;;2.30;2.03;;;28.10;40.00;;;;;;5031643;28;20875;-48
2022/07/19 12:57:49;;;;;;;2.40;2.10;;;28.10;39.80;;;;;;5043587;28;20475;-46
2022/07/19 13:00:21;;;;;;;2.00;1.90;;;28.10;39.60;;;;;;5031014;28;20440;-48
2022/07/19 13:02:54;;;;;;;2.00;1.90;;;28.10;39.60;;;;;;5042653;28;20813;-48
2022/07/19 13:05:24;;;;;;;2.30;2.10;;;28.10;39.70;;;;;;5033187;28;20862;-47
2022/07/19 13:07:52;;;;;;;2.07;1.93;;;28.10;39.60;;;;;;5031669;28;20451;-48